sensor_id;sensor_type;location;lat;lon;timestamp;P1;durP1;ratioP1;P2;durP2;ratioP2
82479;SDS011;72105;46.112;12.902;2024-02-15T00:01:03;7.72;;;5.07;;
82479;SDS011;72105;46.112;12.902;2024-02-15T00:03:30;7.50;;;4.93;;
82479;SDS011;72105;46.112;12.902;2024-02-15T00:06:00;6.88;;;5.03;;
82479;SDS011;72105;46.112;12.902;2024-02-15T00:08:28;10.23;;;5.70;;
82479;SDS011;72105;46.112;12.902;2024-02-15T00:10:54;7.30;;;4.32;;
82479;SDS011;72105;46.112;12.902;2024-02-15T00:13:21;8.65;;;5.43;;
82479;SDS011;72105;46.112;12.902;2024-02-15T00:15:48;8.02;;;5.00;;
82479;SDS011;72105;46.112;12.902;2024-02-15T00:18:15;6.13;;;4.22;;
82479;SDS011;72105;46.112;12.902;2024-02-15T00:20:41;7.75;;;5.60;;
82479;SDS011;72105;46.112;12.902;2024-02-15T00:25:35;8.15;;;5.30;;
82479;SDS011;72105;46.112;12.902;2024-02-15T00:28:01;8.05;;;5.20;;
82479;SDS011;72105;46.112;12.902;2024-02-15T00:30:27;10.68;;;5.28;;
82479;SDS011;72105;46.112;12.902;2024-02-15T00:32:54;9.80;;;6.18;;
82479;SDS011;72105;46.112;12.902;2024-02-15T00:35:20;9.63;;;6.07;;
82479;SDS011;72105;46.112;12.902;2024-02-15T00:37:46;11.07;;;5.30;;
82479;SDS011;72105;46.112;12.902;2024-02-15T00:40:14;8.25;;;4.32;;
82479;SDS011;72105;46.112;12.902;2024-02-15T00:42:41;6.55;;;4.38;;
82479;SDS011;72105;46.112;12.902;2024-02-15T00:45:07;6.85;;;4.47;;
82479;SDS011;72105;46.112;12.902;2024-02-15T00:47:34;6.55;;;4.57;;
82479;SDS011;72105;46.112;12.902;2024-02-15T00:50:00;7.20;;;4.00;;
82479;SDS011;72105;46.112;12.902;2024-02-15T00:52:26;7.55;;;4.35;;
82479;SDS011;72105;46.112;12.902;2024-02-15T00:57:20;6.53;;;3.72;;
82479;SDS011;72105;46.112;12.902;2024-02-15T00:59:46;5.05;;;3.83;;
82479;SDS011;72105;46.112;12.902;2024-02-15T01:02:13;5.10;;;4.03;;
82479;SDS011;72105;46.112;12.902;2024-02-15T01:04:39;7.55;;;4.53;;
82479;SDS011;72105;46.112;12.902;2024-02-15T01:07:05;6.82;;;4.68;;
82479;SDS011;72105;46.112;12.902;2024-02-15T01:11:58;5.70;;;3.88;;
82479;SDS011;72105;46.112;12.902;2024-02-15T01:14:24;7.00;;;4.40;;
82479;SDS011;72105;46.112;12.902;2024-02-15T01:16:55;5.82;;;4.28;;
82479;SDS011;72105;46.112;12.902;2024-02-15T01:19:21;7.75;;;4.57;;
82479;SDS011;72105;46.112;12.902;2024-02-15T01:21:47;7.50;;;3.92;;
82479;SDS011;72105;46.112;12.902;2024-02-15T01:24:13;8.18;;;3.83;;
82479;SDS011;72105;46.112;12.902;2024-02-15T01:26:39;4.72;;;3.70;;
82479;SDS011;72105;46.112;12.902;2024-02-15T01:29:06;5.38;;;3.38;;
82479;SDS011;72105;46.112;12.902;2024-02-15T01:31:35;5.93;;;4.20;;
82479;SDS011;72105;46.112;12.902;2024-02-15T01:34:03;5.15;;;3.13;;
82479;SDS011;72105;46.112;12.902;2024-02-15T01:36:29;6.13;;;3.45;;
82479;SDS011;72105;46.112;12.902;2024-02-15T01:38:55;4.85;;;3.00;;
82479;SDS011;72105;46.112;12.902;2024-02-15T01:41:21;6.10;;;3.35;;
82479;SDS011;72105;46.112;12.902;2024-02-15T01:43:48;4.38;;;3.00;;
82479;SDS011;72105;46.112;12.902;2024-02-15T01:46:15;5.03;;;3.85;;
82479;SDS011;72105;46.112;12.902;2024-02-15T01:48:41;5.30;;;3.65;;
82479;SDS011;72105;46.112;12.902;2024-02-15T01:51:11;5.10;;;3.38;;
82479;SDS011;72105;46.112;12.902;2024-02-15T01:53:40;4.07;;;3.38;;
82479;SDS011;72105;46.112;12.902;2024-02-15T01:56:07;6.20;;;3.28;;
82479;SDS011;72105;46.112;12.902;2024-02-15T01:58:33;6.35;;;3.55;;
82479;SDS011;72105;46.112;12.902;2024-02-15T02:01:00;5.88;;;4.07;;
82479;SDS011;72105;46.112;12.902;2024-02-15T02:03:27;4.70;;;2.97;;
82479;SDS011;72105;46.112;12.902;2024-02-15T02:05:53;3.55;;;2.88;;
82479;SDS011;72105;46.112;12.902;2024-02-15T02:08:20;5.57;;;3.38;;
82479;SDS011;72105;46.112;12.902;2024-02-15T02:10:47;4.53;;;3.08;;
82479;SDS011;72105;46.112;12.902;2024-02-15T02:13:13;5.57;;;3.78;;
82479;SDS011;72105;46.112;12.902;2024-02-15T02:15:40;4.25;;;3.35;;
82479;SDS011;72105;46.112;12.902;2024-02-15T02:18:06;4.60;;;3.28;;
82479;SDS011;72105;46.112;12.902;2024-02-15T02:20:34;3.83;;;3.10;;
82479;SDS011;72105;46.112;12.902;2024-02-15T02:23:04;5.47;;;3.10;;
82479;SDS011;72105;46.112;12.902;2024-02-15T02:25:32;6.57;;;3.70;;
82479;SDS011;72105;46.112;12.902;2024-02-15T02:27:59;7.43;;;4.20;;
82479;SDS011;72105;46.112;12.902;2024-02-15T02:30:25;4.38;;;3.35;;
82479;SDS011;72105;46.112;12.902;2024-02-15T02:32:55;6.63;;;3.92;;
82479;SDS011;72105;46.112;12.902;2024-02-15T02:35:22;4.07;;;2.88;;
82479;SDS011;72105;46.112;12.902;2024-02-15T02:37:48;4.25;;;3.30;;
82479;SDS011;72105;46.112;12.902;2024-02-15T02:40:14;4.30;;;3.28;;
82479;SDS011;72105;46.112;12.902;2024-02-15T02:42:50;5.13;;;3.13;;
82479;SDS011;72105;46.112;12.902;2024-02-15T02:45:16;5.50;;;3.60;;
82479;SDS011;72105;46.112;12.902;2024-02-15T02:47:45;4.28;;;2.63;;
82479;SDS011;72105;46.112;12.902;2024-02-15T02:50:12;4.70;;;3.50;;
82479;SDS011;72105;46.112;12.902;2024-02-15T02:52:38;3.70;;;3.25;;
82479;SDS011;72105;46.112;12.902;2024-02-15T02:55:05;5.20;;;3.53;;
82479;SDS011;72105;46.112;12.902;2024-02-15T02:57:34;5.07;;;3.50;;
82479;SDS011;72105;46.112;12.902;2024-02-15T03:00:03;4.13;;;3.22;;
82479;SDS011;72105;46.112;12.902;2024-02-15T03:02:29;5.22;;;3.42;;
82479;SDS011;72105;46.112;12.902;2024-02-15T03:04:55;4.80;;;2.67;;
82479;SDS011;72105;46.112;12.902;2024-02-15T03:07:25;4.07;;;3.22;;
82479;SDS011;72105;46.112;12.902;2024-02-15T03:09:51;5.85;;;3.70;;
82479;SDS011;72105;46.112;12.902;2024-02-15T03:12:17;3.53;;;2.70;;
82479;SDS011;72105;46.112;12.902;2024-02-15T03:14:43;5.90;;;3.47;;
82479;SDS011;72105;46.112;12.902;2024-02-15T03:17:10;4.70;;;2.70;;
82479;SDS011;72105;46.112;12.902;2024-02-15T03:19:36;4.07;;;2.80;;
82479;SDS011;72105;46.112;12.902;2024-02-15T03:22:02;4.75;;;2.72;;
82479;SDS011;72105;46.112;12.902;2024-02-15T03:24:29;5.45;;;3.05;;
82479;SDS011;72105;46.112;12.902;2024-02-15T03:26:55;4.20;;;2.80;;
82479;SDS011;72105;46.112;12.902;2024-02-15T03:29:21;5.03;;;2.45;;
82479;SDS011;72105;46.112;12.902;2024-02-15T03:31:47;3.70;;;2.50;;
82479;SDS011;72105;46.112;12.902;2024-02-15T03:34:14;4.43;;;2.47;;
82479;SDS011;72105;46.112;12.902;2024-02-15T03:36:41;4.10;;;2.38;;
82479;SDS011;72105;46.112;12.902;2024-02-15T03:39:07;4.00;;;2.88;;
82479;SDS011;72105;46.112;12.902;2024-02-15T03:41:33;5.05;;;2.53;;
82479;SDS011;72105;46.112;12.902;2024-02-15T03:43:59;3.83;;;2.58;;
82479;SDS011;72105;46.112;12.902;2024-02-15T03:46:25;3.83;;;2.65;;
82479;SDS011;72105;46.112;12.902;2024-02-15T03:48:52;4.40;;;3.10;;
82479;SDS011;72105;46.112;12.902;2024-02-15T03:51:21;3.80;;;2.67;;
82479;SDS011;72105;46.112;12.902;2024-02-15T03:53:49;5.13;;;3.08;;
82479;SDS011;72105;46.112;12.902;2024-02-15T03:56:17;3.88;;;2.20;;
82479;SDS011;72105;46.112;12.902;2024-02-15T03:58:44;4.32;;;2.75;;
82479;SDS011;72105;46.112;12.902;2024-02-15T04:01:10;3.45;;;2.55;;
82479;SDS011;72105;46.112;12.902;2024-02-15T04:03:38;3.72;;;2.30;;
82479;SDS011;72105;46.112;12.902;2024-02-15T04:06:05;3.50;;;2.30;;
82479;SDS011;72105;46.112;12.902;2024-02-15T04:08:31;2.88;;;1.88;;
82479;SDS011;72105;46.112;12.902;2024-02-15T04:10:58;3.75;;;2.55;;
82479;SDS011;72105;46.112;12.902;2024-02-15T04:13:24;4.15;;;2.70;;
82479;SDS011;72105;46.112;12.902;2024-02-15T04:15:50;4.18;;;2.90;;
82479;SDS011;72105;46.112;12.902;2024-02-15T04:18:18;5.03;;;3.03;;
82479;SDS011;72105;46.112;12.902;2024-02-15T04:20:44;5.45;;;2.88;;
82479;SDS011;72105;46.112;12.902;2024-02-15T04:23:11;3.67;;;2.90;;
82479;SDS011;72105;46.112;12.902;2024-02-15T04:25:38;4.60;;;3.28;;
82479;SDS011;72105;46.112;12.902;2024-02-15T04:30:33;5.38;;;2.65;;
82479;SDS011;72105;46.112;12.902;2024-02-15T04:33:03;4.10;;;2.83;;
82479;SDS011;72105;46.112;12.902;2024-02-15T04:35:30;3.38;;;2.55;;
82479;SDS011;72105;46.112;12.902;2024-02-15T04:37:56;5.13;;;2.85;;
82479;SDS011;72105;46.112;12.902;2024-02-15T04:40:22;2.90;;;2.38;;
82479;SDS011;72105;46.112;12.902;2024-02-15T04:42:49;3.08;;;2.03;;
82479;SDS011;72105;46.112;12.902;2024-02-15T04:45:15;2.97;;;2.20;;
82479;SDS011;72105;46.112;12.902;2024-02-15T04:47:41;5.93;;;2.47;;
82479;SDS011;72105;46.112;12.902;2024-02-15T04:50:10;3.95;;;2.72;;
82479;SDS011;72105;46.112;12.902;2024-02-15T04:52:36;4.50;;;3.15;;
82479;SDS011;72105;46.112;12.902;2024-02-15T04:55:04;2.67;;;2.25;;
82479;SDS011;72105;46.112;12.902;2024-02-15T04:57:30;3.58;;;2.70;;
82479;SDS011;72105;46.112;12.902;2024-02-15T04:59:59;3.40;;;2.42;;
82479;SDS011;72105;46.112;12.902;2024-02-15T05:02:25;3.70;;;2.63;;
82479;SDS011;72105;46.112;12.902;2024-02-15T05:04:51;3.63;;;1.98;;
82479;SDS011;72105;46.112;12.902;2024-02-15T05:07:22;4.25;;;2.65;;
82479;SDS011;72105;46.112;12.902;2024-02-15T05:09:48;4.80;;;2.50;;
82479;SDS011;72105;46.112;12.902;2024-02-15T05:12:23;3.33;;;2.20;;
82479;SDS011;72105;46.112;12.902;2024-02-15T05:14:50;2.65;;;2.20;;
82479;SDS011;72105;46.112;12.902;2024-02-15T05:17:16;3.70;;;2.60;;
82479;SDS011;72105;46.112;12.902;2024-02-15T05:19:42;5.88;;;2.58;;
82479;SDS011;72105;46.112;12.902;2024-02-15T05:22:10;3.22;;;2.38;;
82479;SDS011;72105;46.112;12.902;2024-02-15T05:24:36;3.13;;;2.63;;
82479;SDS011;72105;46.112;12.902;2024-02-15T05:27:05;2.92;;;2.53;;
82479;SDS011;72105;46.112;12.902;2024-02-15T05:29:31;3.67;;;2.20;;
82479;SDS011;72105;46.112;12.902;2024-02-15T05:32:01;3.83;;;2.53;;
82479;SDS011;72105;46.112;12.902;2024-02-15T05:34:27;3.08;;;2.72;;
82479;SDS011;72105;46.112;12.902;2024-02-15T05:36:57;3.13;;;2.45;;
82479;SDS011;72105;46.112;12.902;2024-02-15T05:39:23;4.13;;;2.42;;
82479;SDS011;72105;46.112;12.902;2024-02-15T05:41:50;7.47;;;3.53;;
82479;SDS011;72105;46.112;12.902;2024-02-15T05:44:16;6.25;;;3.63;;
82479;SDS011;72105;46.112;12.902;2024-02-15T05:46:45;7.65;;;4.13;;
82479;SDS011;72105;46.112;12.902;2024-02-15T05:49:12;5.00;;;3.17;;
82479;SDS011;72105;46.112;12.902;2024-02-15T05:51:42;3.45;;;2.45;;
82479;SDS011;72105;46.112;12.902;2024-02-15T05:54:08;4.45;;;2.83;;
82479;SDS011;72105;46.112;12.902;2024-02-15T05:56:34;3.47;;;2.72;;
82479;SDS011;72105;46.112;12.902;2024-02-15T05:59:00;2.88;;;2.42;;
82479;SDS011;72105;46.112;12.902;2024-02-15T06:04:00;4.32;;;2.92;;
82479;SDS011;72105;46.112;12.902;2024-02-15T06:06:30;4.82;;;2.65;;
82479;SDS011;72105;46.112;12.902;2024-02-15T06:08:56;6.90;;;3.00;;
82479;SDS011;72105;46.112;12.902;2024-02-15T06:11:24;4.40;;;2.95;;
82479;SDS011;72105;46.112;12.902;2024-02-15T06:13:51;2.83;;;2.00;;
82479;SDS011;72105;46.112;12.902;2024-02-15T06:16:17;4.80;;;3.13;;
82479;SDS011;72105;46.112;12.902;2024-02-15T06:18:43;4.20;;;3.03;;
82479;SDS011;72105;46.112;12.902;2024-02-15T06:21:09;3.05;;;2.40;;
82479;SDS011;72105;46.112;12.902;2024-02-15T06:23:35;4.35;;;2.92;;
82479;SDS011;72105;46.112;12.902;2024-02-15T06:26:02;4.30;;;2.75;;
82479;SDS011;72105;46.112;12.902;2024-02-15T06:28:28;3.50;;;2.38;;
82479;SDS011;72105;46.112;12.902;2024-02-15T06:31:13;4.90;;;2.55;;
82479;SDS011;72105;46.112;12.902;2024-02-15T06:33:58;5.53;;;2.30;;
82479;SDS011;72105;46.112;12.902;2024-02-15T06:36:49;3.95;;;2.65;;
82479;SDS011;72105;46.112;12.902;2024-02-15T06:39:35;4.38;;;3.00;;
82479;SDS011;72105;46.112;12.902;2024-02-15T06:42:07;3.72;;;2.92;;
82479;SDS011;72105;46.112;12.902;2024-02-15T06:44:34;4.50;;;3.08;;
82479;SDS011;72105;46.112;12.902;2024-02-15T06:47:00;4.75;;;3.53;;
82479;SDS011;72105;46.112;12.902;2024-02-15T06:49:26;4.72;;;3.30;;
82479;SDS011;72105;46.112;12.902;2024-02-15T06:51:53;4.45;;;3.92;;
82479;SDS011;72105;46.112;12.902;2024-02-15T06:54:19;3.80;;;2.97;;
82479;SDS011;72105;46.112;12.902;2024-02-15T06:56:45;6.35;;;3.97;;
82479;SDS011;72105;46.112;12.902;2024-02-15T06:59:12;6.05;;;3.83;;
82479;SDS011;72105;46.112;12.902;2024-02-15T07:01:43;4.82;;;3.40;;
82479;SDS011;72105;46.112;12.902;2024-02-15T07:04:09;6.60;;;5.28;;
82479;SDS011;72105;46.112;12.902;2024-02-15T07:06:38;8.80;;;5.57;;
82479;SDS011;72105;46.112;12.902;2024-02-15T07:09:05;8.10;;;5.22;;
82479;SDS011;72105;46.112;12.902;2024-02-15T07:11:34;10.60;;;5.30;;
82479;SDS011;72105;46.112;12.902;2024-02-15T07:14:01;7.47;;;5.22;;
82479;SDS011;72105;46.112;12.902;2024-02-15T07:16:27;7.70;;;5.25;;
82479;SDS011;72105;46.112;12.902;2024-02-15T07:18:54;8.57;;;4.60;;
82479;SDS011;72105;46.112;12.902;2024-02-15T07:21:20;8.35;;;4.97;;
82479;SDS011;72105;46.112;12.902;2024-02-15T07:23:51;6.78;;;5.00;;
82479;SDS011;72105;46.112;12.902;2024-02-15T07:26:19;9.32;;;5.28;;
82479;SDS011;72105;46.112;12.902;2024-02-15T07:28:48;7.30;;;4.82;;
82479;SDS011;72105;46.112;12.902;2024-02-15T07:31:15;7.32;;;4.88;;
82479;SDS011;72105;46.112;12.902;2024-02-15T07:33:41;5.25;;;3.30;;
82479;SDS011;72105;46.112;12.902;2024-02-15T07:36:10;9.05;;;4.18;;
82479;SDS011;72105;46.112;12.902;2024-02-15T07:38:36;4.75;;;3.67;;
82479;SDS011;72105;46.112;12.902;2024-02-15T07:41:03;6.30;;;4.22;;
82479;SDS011;72105;46.112;12.902;2024-02-15T07:43:29;6.90;;;3.85;;
82479;SDS011;72105;46.112;12.902;2024-02-15T07:45:55;6.60;;;4.22;;
82479;SDS011;72105;46.112;12.902;2024-02-15T07:48:21;4.95;;;3.65;;
82479;SDS011;72105;46.112;12.902;2024-02-15T07:50:47;9.48;;;3.72;;
82479;SDS011;72105;46.112;12.902;2024-02-15T07:53:13;4.38;;;3.90;;
82479;SDS011;72105;46.112;12.902;2024-02-15T07:55:42;5.78;;;3.75;;
82479;SDS011;72105;46.112;12.902;2024-02-15T07:58:09;9.15;;;4.07;;
82479;SDS011;72105;46.112;12.902;2024-02-15T08:00:35;5.95;;;5.15;;
82479;SDS011;72105;46.112;12.902;2024-02-15T08:03:03;8.23;;;5.30;;
82479;SDS011;72105;46.112;12.902;2024-02-15T08:05:29;9.75;;;6.90;;
82479;SDS011;72105;46.112;12.902;2024-02-15T08:07:55;9.45;;;5.57;;
82479;SDS011;72105;46.112;12.902;2024-02-15T08:10:22;6.82;;;5.60;;
82479;SDS011;72105;46.112;12.902;2024-02-15T08:12:49;8.43;;;5.18;;
82479;SDS011;72105;46.112;12.902;2024-02-15T08:15:17;7.97;;;6.50;;
82479;SDS011;72105;46.112;12.902;2024-02-15T08:17:44;6.85;;;5.40;;
82479;SDS011;72105;46.112;12.902;2024-02-15T08:20:14;9.55;;;6.20;;
82479;SDS011;72105;46.112;12.902;2024-02-15T08:22:46;8.50;;;5.18;;
82479;SDS011;72105;46.112;12.902;2024-02-15T08:25:13;8.27;;;5.57;;
82479;SDS011;72105;46.112;12.902;2024-02-15T08:27:41;7.82;;;5.30;;
82479;SDS011;72105;46.112;12.902;2024-02-15T08:30:11;8.10;;;5.60;;
82479;SDS011;72105;46.112;12.902;2024-02-15T08:35:05;7.85;;;5.30;;
82479;SDS011;72105;46.112;12.902;2024-02-15T08:37:31;8.45;;;4.93;;
82479;SDS011;72105;46.112;12.902;2024-02-15T08:40:00;8.20;;;5.22;;
82479;SDS011;72105;46.112;12.902;2024-02-15T08:42:26;8.65;;;5.57;;
82479;SDS011;72105;46.112;12.902;2024-02-15T08:44:52;9.75;;;6.45;;
82479;SDS011;72105;46.112;12.902;2024-02-15T08:47:18;11.07;;;6.15;;
82479;SDS011;72105;46.112;12.902;2024-02-15T08:49:44;9.30;;;5.80;;
82479;SDS011;72105;46.112;12.902;2024-02-15T08:52:10;8.77;;;6.07;;
82479;SDS011;72105;46.112;12.902;2024-02-15T08:54:36;8.43;;;6.45;;
82479;SDS011;72105;46.112;12.902;2024-02-15T08:57:04;10.32;;;5.95;;
82479;SDS011;72105;46.112;12.902;2024-02-15T08:59:30;8.82;;;5.85;;
82479;SDS011;72105;46.112;12.902;2024-02-15T09:01:56;11.75;;;5.88;;
82479;SDS011;72105;46.112;12.902;2024-02-15T09:04:25;9.65;;;5.35;;
82479;SDS011;72105;46.112;12.902;2024-02-15T09:06:52;9.30;;;6.03;;
82479;SDS011;72105;46.112;12.902;2024-02-15T09:09:18;12.07;;;6.65;;
82479;SDS011;72105;46.112;12.902;2024-02-15T09:11:44;12.70;;;7.55;;
82479;SDS011;72105;46.112;12.902;2024-02-15T09:14:10;12.43;;;7.22;;
82479;SDS011;72105;46.112;12.902;2024-02-15T09:16:37;14.52;;;8.68;;
82479;SDS011;72105;46.112;12.902;2024-02-15T09:21:31;10.55;;;6.60;;
82479;SDS011;72105;46.112;12.902;2024-02-15T09:23:59;15.20;;;8.85;;
82479;SDS011;72105;46.112;12.902;2024-02-15T09:26:37;13.80;;;7.18;;
82479;SDS011;72105;46.112;12.902;2024-02-15T09:29:03;12.90;;;8.10;;
82479;SDS011;72105;46.112;12.902;2024-02-15T09:31:29;11.98;;;7.22;;
82479;SDS011;72105;46.112;12.902;2024-02-15T09:33:56;10.57;;;7.10;;
82479;SDS011;72105;46.112;12.902;2024-02-15T09:36:23;12.65;;;7.07;;
82479;SDS011;72105;46.112;12.902;2024-02-15T09:38:49;13.27;;;7.15;;
82479;SDS011;72105;46.112;12.902;2024-02-15T09:41:15;12.45;;;7.68;;
82479;SDS011;72105;46.112;12.902;2024-02-15T09:43:41;14.55;;;7.78;;
82479;SDS011;72105;46.112;12.902;2024-02-15T09:46:08;11.60;;;6.43;;
82479;SDS011;72105;46.112;12.902;2024-02-15T09:48:34;13.05;;;7.60;;
82479;SDS011;72105;46.112;12.902;2024-02-15T09:51:01;14.32;;;7.78;;
82479;SDS011;72105;46.112;12.902;2024-02-15T09:53:27;10.00;;;6.75;;
82479;SDS011;72105;46.112;12.902;2024-02-15T09:55:54;14.50;;;7.75;;
82479;SDS011;72105;46.112;12.902;2024-02-15T09:58:21;13.00;;;7.22;;
82479;SDS011;72105;46.112;12.902;2024-02-15T10:00:50;14.27;;;7.32;;
82479;SDS011;72105;46.112;12.902;2024-02-15T10:03:18;14.40;;;7.97;;
82479;SDS011;72105;46.112;12.902;2024-02-15T10:05:48;13.52;;;8.07;;
82479;SDS011;72105;46.112;12.902;2024-02-15T10:08:15;13.00;;;7.68;;
82479;SDS011;72105;46.112;12.902;2024-02-15T10:10:42;17.10;;;9.13;;
82479;SDS011;72105;46.112;12.902;2024-02-15T10:13:12;12.30;;;7.50;;
82479;SDS011;72105;46.112;12.902;2024-02-15T10:15:39;18.45;;;8.68;;
82479;SDS011;72105;46.112;12.902;2024-02-15T10:18:10;17.42;;;9.60;;
82479;SDS011;72105;46.112;12.902;2024-02-15T10:20:37;18.70;;;9.50;;
82479;SDS011;72105;46.112;12.902;2024-02-15T10:25:36;20.48;;;11.05;;
82479;SDS011;72105;46.112;12.902;2024-02-15T10:28:06;24.25;;;11.88;;
82479;SDS011;72105;46.112;12.902;2024-02-15T10:30:36;19.02;;;11.35;;
82479;SDS011;72105;46.112;12.902;2024-02-15T10:33:03;22.90;;;11.73;;
82479;SDS011;72105;46.112;12.902;2024-02-15T10:35:29;22.90;;;12.57;;
82479;SDS011;72105;46.112;12.902;2024-02-15T10:38:11;28.10;;;12.85;;
82479;SDS011;72105;46.112;12.902;2024-02-15T10:40:38;29.58;;;14.00;;
82479;SDS011;72105;46.112;12.902;2024-02-15T10:43:08;26.15;;;13.30;;
82479;SDS011;72105;46.112;12.902;2024-02-15T10:45:38;26.75;;;12.88;;
82479;SDS011;72105;46.112;12.902;2024-02-15T10:48:10;23.45;;;12.25;;
82479;SDS011;72105;46.112;12.902;2024-02-15T10:50:41;23.60;;;12.50;;
82479;SDS011;72105;46.112;12.902;2024-02-15T10:53:21;25.10;;;12.60;;
82479;SDS011;72105;46.112;12.902;2024-02-15T10:56:33;25.02;;;13.13;;
82479;SDS011;72105;46.112;12.902;2024-02-15T10:58:42;21.65;;;10.88;;
82479;SDS011;72105;46.112;12.902;2024-02-15T11:01:11;23.60;;;12.63;;
82479;SDS011;72105;46.112;12.902;2024-02-15T11:03:40;20.45;;;10.55;;
82479;SDS011;72105;46.112;12.902;2024-02-15T11:06:12;23.98;;;11.68;;
82479;SDS011;72105;46.112;12.902;2024-02-15T11:08:39;21.25;;;11.20;;
82479;SDS011;72105;46.112;12.902;2024-02-15T11:11:06;19.35;;;10.88;;
82479;SDS011;72105;46.112;12.902;2024-02-15T11:13:34;21.88;;;12.10;;
82479;SDS011;72105;46.112;12.902;2024-02-15T11:16:00;19.60;;;10.77;;
82479;SDS011;72105;46.112;12.902;2024-02-15T11:18:42;21.40;;;11.70;;
82479;SDS011;72105;46.112;12.902;2024-02-15T11:21:16;20.02;;;12.55;;
82479;SDS011;72105;46.112;12.902;2024-02-15T11:23:43;25.08;;;11.75;;
82479;SDS011;72105;46.112;12.902;2024-02-15T11:28:55;19.52;;;11.05;;
82479;SDS011;72105;46.112;12.902;2024-02-15T11:31:52;17.98;;;10.88;;
82479;SDS011;72105;46.112;12.902;2024-02-15T11:37:03;16.27;;;10.30;;
82479;SDS011;72105;46.112;12.902;2024-02-15T11:39:41;25.17;;;13.57;;
82479;SDS011;72105;46.112;12.902;2024-02-15T11:42:24;21.05;;;12.25;;
82479;SDS011;72105;46.112;12.902;2024-02-15T11:45:03;19.20;;;11.40;;
82479;SDS011;72105;46.112;12.902;2024-02-15T11:47:31;18.92;;;10.30;;
82479;SDS011;72105;46.112;12.902;2024-02-15T11:49:59;22.00;;;12.30;;
82479;SDS011;72105;46.112;12.902;2024-02-15T11:52:25;18.48;;;11.15;;
82479;SDS011;72105;46.112;12.902;2024-02-15T11:54:51;20.65;;;12.00;;
82479;SDS011;72105;46.112;12.902;2024-02-15T11:57:18;20.48;;;11.80;;
82479;SDS011;72105;46.112;12.902;2024-02-15T12:00:01;23.38;;;12.50;;
82479;SDS011;72105;46.112;12.902;2024-02-15T12:02:46;19.63;;;11.40;;
82479;SDS011;72105;46.112;12.902;2024-02-15T12:05:30;23.23;;;13.02;;
82479;SDS011;72105;46.112;12.902;2024-02-15T12:08:15;24.70;;;12.88;;
82479;SDS011;72105;46.112;12.902;2024-02-15T12:11:00;20.58;;;13.35;;
82479;SDS011;72105;46.112;12.902;2024-02-15T12:13:51;20.23;;;11.43;;
82479;SDS011;72105;46.112;12.902;2024-02-15T12:16:36;22.77;;;11.05;;
82479;SDS011;72105;46.112;12.902;2024-02-15T12:19:20;22.70;;;11.50;;
82479;SDS011;72105;46.112;12.902;2024-02-15T12:21:47;23.80;;;11.02;;
82479;SDS011;72105;46.112;12.902;2024-02-15T12:24:14;19.88;;;11.30;;
82479;SDS011;72105;46.112;12.902;2024-02-15T12:26:42;21.70;;;11.25;;
82479;SDS011;72105;46.112;12.902;2024-02-15T12:29:08;22.30;;;11.63;;
82479;SDS011;72105;46.112;12.902;2024-02-15T12:31:37;19.40;;;11.80;;
82479;SDS011;72105;46.112;12.902;2024-02-15T12:34:04;25.52;;;12.90;;
82479;SDS011;72105;46.112;12.902;2024-02-15T12:36:34;25.88;;;11.95;;
82479;SDS011;72105;46.112;12.902;2024-02-15T12:39:04;22.35;;;11.52;;
82479;SDS011;72105;46.112;12.902;2024-02-15T12:41:40;25.50;;;11.73;;
82479;SDS011;72105;46.112;12.902;2024-02-15T12:44:07;21.17;;;11.13;;
82479;SDS011;72105;46.112;12.902;2024-02-15T12:46:35;26.40;;;11.80;;
82479;SDS011;72105;46.112;12.902;2024-02-15T12:49:27;18.40;;;10.27;;
82479;SDS011;72105;46.112;12.902;2024-02-15T12:51:53;23.02;;;12.15;;
82479;SDS011;72105;46.112;12.902;2024-02-15T12:54:23;23.67;;;13.57;;
82479;SDS011;72105;46.112;12.902;2024-02-15T12:56:49;19.70;;;11.05;;
82479;SDS011;72105;46.112;12.902;2024-02-15T12:59:18;18.35;;;10.35;;
82479;SDS011;72105;46.112;12.902;2024-02-15T13:01:44;19.25;;;10.80;;
82479;SDS011;72105;46.112;12.902;2024-02-15T13:04:25;18.67;;;10.13;;
82479;SDS011;72105;46.112;12.902;2024-02-15T13:06:53;22.40;;;11.27;;
82479;SDS011;72105;46.112;12.902;2024-02-15T13:09:19;18.38;;;9.18;;
82479;SDS011;72105;46.112;12.902;2024-02-15T13:11:47;20.08;;;10.25;;
82479;SDS011;72105;46.112;12.902;2024-02-15T13:14:18;21.52;;;11.38;;
82479;SDS011;72105;46.112;12.902;2024-02-15T13:16:45;21.98;;;10.93;;
82479;SDS011;72105;46.112;12.902;2024-02-15T13:19:13;19.02;;;10.65;;
82479;SDS011;72105;46.112;12.902;2024-02-15T13:21:39;17.63;;;10.05;;
82479;SDS011;72105;46.112;12.902;2024-02-15T13:24:05;19.70;;;11.25;;
82479;SDS011;72105;46.112;12.902;2024-02-15T13:26:31;21.33;;;10.88;;
82479;SDS011;72105;46.112;12.902;2024-02-15T13:28:59;21.73;;;11.30;;
82479;SDS011;72105;46.112;12.902;2024-02-15T13:31:25;18.33;;;11.32;;
82479;SDS011;72105;46.112;12.902;2024-02-15T13:33:52;19.50;;;10.20;;
82479;SDS011;72105;46.112;12.902;2024-02-15T13:36:18;18.33;;;9.80;;
82479;SDS011;72105;46.112;12.902;2024-02-15T13:38:45;16.85;;;9.30;;
82479;SDS011;72105;46.112;12.902;2024-02-15T13:41:12;20.25;;;10.80;;
82479;SDS011;72105;46.112;12.902;2024-02-15T13:43:38;21.42;;;10.32;;
82479;SDS011;72105;46.112;12.902;2024-02-15T13:46:06;17.77;;;10.40;;
82479;SDS011;72105;46.112;12.902;2024-02-15T13:48:32;18.08;;;10.13;;
82479;SDS011;72105;46.112;12.902;2024-02-15T13:50:58;17.65;;;10.10;;
82479;SDS011;72105;46.112;12.902;2024-02-15T13:53:24;21.85;;;10.80;;
82479;SDS011;72105;46.112;12.902;2024-02-15T13:55:50;17.83;;;10.30;;
82479;SDS011;72105;46.112;12.902;2024-02-15T13:58:20;22.17;;;12.23;;
82479;SDS011;72105;46.112;12.902;2024-02-15T14:00:46;22.52;;;11.43;;
82479;SDS011;72105;46.112;12.902;2024-02-15T14:03:13;21.60;;;11.32;;
82479;SDS011;72105;46.112;12.902;2024-02-15T14:05:40;21.50;;;11.07;;
82479;SDS011;72105;46.112;12.902;2024-02-15T14:08:07;20.25;;;11.32;;
82479;SDS011;72105;46.112;12.902;2024-02-15T14:10:34;18.48;;;11.15;;
82479;SDS011;72105;46.112;12.902;2024-02-15T14:13:01;19.98;;;10.80;;
82479;SDS011;72105;46.112;12.902;2024-02-15T14:15:29;22.33;;;11.65;;
82479;SDS011;72105;46.112;12.902;2024-02-15T14:17:55;21.50;;;11.60;;
82479;SDS011;72105;46.112;12.902;2024-02-15T14:20:22;20.77;;;11.70;;
82479;SDS011;72105;46.112;12.902;2024-02-15T14:22:49;20.75;;;12.38;;
82479;SDS011;72105;46.112;12.902;2024-02-15T14:25:20;23.25;;;11.65;;
82479;SDS011;72105;46.112;12.902;2024-02-15T14:27:47;19.80;;;11.80;;
82479;SDS011;72105;46.112;12.902;2024-02-15T14:30:13;26.05;;;13.18;;
82479;SDS011;72105;46.112;12.902;2024-02-15T14:32:58;23.95;;;11.90;;
82479;SDS011;72105;46.112;12.902;2024-02-15T14:35:36;19.60;;;11.93;;
82479;SDS011;72105;46.112;12.902;2024-02-15T14:38:04;21.55;;;12.35;;
82479;SDS011;72105;46.112;12.902;2024-02-15T14:40:36;21.33;;;10.93;;
82479;SDS011;72105;46.112;12.902;2024-02-15T14:43:03;23.23;;;11.95;;
82479;SDS011;72105;46.112;12.902;2024-02-15T14:45:32;21.67;;;11.48;;
82479;SDS011;72105;46.112;12.902;2024-02-15T14:47:59;31.08;;;16.88;;
82479;SDS011;72105;46.112;12.902;2024-02-15T14:50:25;22.90;;;12.15;;
82479;SDS011;72105;46.112;12.902;2024-02-15T14:52:52;25.98;;;14.07;;
82479;SDS011;72105;46.112;12.902;2024-02-15T14:55:21;20.73;;;12.45;;
82479;SDS011;72105;46.112;12.902;2024-02-15T14:57:47;23.63;;;12.60;;